< Cyclone 201904 2019 Season Cyclone 201907 >
Cyclone 201905 (Kenanga)
General InformationTrack Information on Google MapsDetailed Wind InformationList of All Images || ResourceGoogle EarthGE AnimationAtom FeedGeoJSON
Detalied Best Track (Time Zone = UTC)
Year Month Day Hour Lat. Long. Pressure (hPa) Wind (kt) Class Image Chart
2018 12 14 06 -7.6 93.1 1002 25 2 Image --
2018 12 14 12 -7.8 92.5 1000 30 2 Image --
2018 12 14 18 -7.7 91.7 1000 30 2 Image --
2018 12 15 00 -7.8 91.7 1000 30 2 Image --
2018 12 15 06 -8.3 91.7 999 30 2 Image --
2018 12 15 12 -8.4 91.6 998 35 3 Image --
2018 12 15 18 -8.6 91.4 998 35 3 Image --
2018 12 16 00 -8.9 91.1 996 40 3 Image --
2018 12 16 06 -9.5 90.7 996 40 3 Image --
2018 12 16 12 -10.3 90.1 996 40 3 Image --
2018 12 16 18 -11.0 89.3 992 45 3 Image --
2018 12 17 00 -11.7 88.2 992 45 3 Image --
2018 12 17 06 -12.2 87.4 990 45 3 Image --
2018 12 17 12 -12.6 86.3 986 50 4 Image --
2018 12 17 18 -13.0 85.4 986 50 4 Image --
2018 12 18 00 -13.6 84.8 980 60 4 Image --
2018 12 18 06 -14.2 84.3 978 65 5 Image --
2018 12 18 12 -14.7 83.7 968 80 5 Image --
2018 12 18 18 -15.2 83.1 958 85 5 Image --
2018 12 19 00 -15.7 82.8 952 90 5 Image --
2018 12 19 06 -16.0 82.5 942 100 5 Image --
2018 12 19 12 -16.3 82.3 944 100 5 Image --
2018 12 19 18 -16.5 82.1 953 95 5 Image --
2018 12 20 00 -16.5 81.9 960 85 5 Image --
2018 12 20 06 -16.4 81.6 965 80 5 Image --
2018 12 20 12 -16.4 81.2 968 80 5 Image --
2018 12 20 18 -16.3 80.8 968 80 5 Image --
2018 12 21 00 -16.1 80.4 977 70 5 Image --
2018 12 21 06 -15.9 79.9 980 65 5 Image --
2018 12 21 12 -16.0 79.4 982 60 4 Image --
2018 12 21 18 -16.2 79.1 986 55 4 Image --
2018 12 22 00 -16.6 78.7 988 50 4 Image --
2018 12 22 06 -17.0 78.3 992 40 3 Image --
2018 12 22 12 -17.3 77.8 995 40 3 Image --
2018 12 22 18 -17.4 77.5 997 35 3 Image --
2018 12 23 00 -17.8 77.1 998 30 2 Image --
2018 12 23 06 -18.2 76.7 998 30 2 Image --
2018 12 23 12 -18.6 76.4 999 30 2 Image --
2018 12 23 18 -19.0 76.0 1000 30 2 Image --
2018 12 24 00 -19.3 75.5 1001 30 2 Image --
2018 12 24 06 -19.6 75.0 1001 30 2 Image --
2018 12 24 12 -20.1 74.8 1001 30 2 Image --
2018 12 24 18 -20.6 74.8 1003 28 2 Image --
2018 12 25 00 -21.1 75.0 1006 27 2 Image --
2018 12 25 06 -21.5 75.2 1008 25 2 Image --
2018 12 25 12 -22.3 75.3 1008 25 2 Image --
2018 12 25 18 -23.2 75.3 1008 23 2 Image --
2018 12 26 00 -24.1 75.4 1009 22 2 Image --
2018 12 26 06 -24.9 75.9 1010 20 2 Image --
< Cyclone 201904 2019 Season Cyclone 201907 >

Help